sensor_id;sensor_type;location;lat;lon;timestamp;P1;durP1;ratioP1;P2;durP2;ratioP2
17059;SDS011;8646;49.716;9.266;2023-03-29T00:02:02;4.10;;;1.60;;
17059;SDS011;8646;49.716;9.266;2023-03-29T00:05:06;5.23;;;1.90;;
17059;SDS011;8646;49.716;9.266;2023-03-29T00:08:10;5.53;;;1.43;;
17059;SDS011;8646;49.716;9.266;2023-03-29T00:11:15;3.53;;;1.60;;
17059;SDS011;8646;49.716;9.266;2023-03-29T00:14:19;3.73;;;1.60;;
17059;SDS011;8646;49.716;9.266;2023-03-29T00:17:22;3.40;;;1.80;;
17059;SDS011;8646;49.716;9.266;2023-03-29T00:20:25;5.57;;;2.10;;
17059;SDS011;8646;49.716;9.266;2023-03-29T00:23:29;4.63;;;1.77;;
17059;SDS011;8646;49.716;9.266;2023-03-29T00:26:31;6.57;;;2.30;;
17059;SDS011;8646;49.716;9.266;2023-03-29T00:29:35;4.20;;;1.67;;
17059;SDS011;8646;49.716;9.266;2023-03-29T00:32:39;4.30;;;1.50;;
17059;SDS011;8646;49.716;9.266;2023-03-29T00:35:42;5.97;;;2.00;;
17059;SDS011;8646;49.716;9.266;2023-03-29T00:38:45;4.33;;;2.17;;
17059;SDS011;8646;49.716;9.266;2023-03-29T00:41:48;5.30;;;2.30;;
17059;SDS011;8646;49.716;9.266;2023-03-29T00:44:57;4.63;;;2.47;;
17059;SDS011;8646;49.716;9.266;2023-03-29T00:48:02;5.83;;;2.30;;
17059;SDS011;8646;49.716;9.266;2023-03-29T00:51:07;9.97;;;3.10;;
17059;SDS011;8646;49.716;9.266;2023-03-29T00:54:13;10.00;;;3.00;;
17059;SDS011;8646;49.716;9.266;2023-03-29T00:57:19;8.37;;;2.83;;
17059;SDS011;8646;49.716;9.266;2023-03-29T01:00:29;7.03;;;2.63;;
17059;SDS011;8646;49.716;9.266;2023-03-29T01:03:36;9.03;;;3.40;;
17059;SDS011;8646;49.716;9.266;2023-03-29T01:06:48;11.77;;;3.47;;
17059;SDS011;8646;49.716;9.266;2023-03-29T01:09:57;8.30;;;3.33;;
17059;SDS011;8646;49.716;9.266;2023-03-29T01:13:06;14.43;;;3.20;;
17059;SDS011;8646;49.716;9.266;2023-03-29T01:16:14;5.47;;;1.90;;
17059;SDS011;8646;49.716;9.266;2023-03-29T01:19:20;10.17;;;2.10;;
17059;SDS011;8646;49.716;9.266;2023-03-29T01:22:28;3.87;;;1.67;;
17059;SDS011;8646;49.716;9.266;2023-03-29T01:25:40;4.97;;;1.47;;
17059;SDS011;8646;49.716;9.266;2023-03-29T01:28:51;10.13;;;2.50;;
17059;SDS011;8646;49.716;9.266;2023-03-29T01:32:02;7.60;;;2.57;;
17059;SDS011;8646;49.716;9.266;2023-03-29T01:35:10;10.40;;;2.70;;
17059;SDS011;8646;49.716;9.266;2023-03-29T01:38:16;8.27;;;2.77;;
17059;SDS011;8646;49.716;9.266;2023-03-29T01:41:25;9.67;;;3.03;;
17059;SDS011;8646;49.716;9.266;2023-03-29T01:44:36;10.27;;;3.50;;
17059;SDS011;8646;49.716;9.266;2023-03-29T01:47:46;12.47;;;3.80;;
17059;SDS011;8646;49.716;9.266;2023-03-29T01:50:57;11.17;;;3.90;;
17059;SDS011;8646;49.716;9.266;2023-03-29T01:54:06;12.50;;;3.70;;
17059;SDS011;8646;49.716;9.266;2023-03-29T01:57:14;10.53;;;4.37;;
17059;SDS011;8646;49.716;9.266;2023-03-29T02:00:20;15.30;;;4.37;;
17059;SDS011;8646;49.716;9.266;2023-03-29T02:03:28;10.50;;;3.70;;
17059;SDS011;8646;49.716;9.266;2023-03-29T02:06:32;14.03;;;4.57;;
17059;SDS011;8646;49.716;9.266;2023-03-29T02:09:37;15.03;;;4.90;;
17059;SDS011;8646;49.716;9.266;2023-03-29T02:12:41;14.13;;;4.30;;
17059;SDS011;8646;49.716;9.266;2023-03-29T02:15:45;10.73;;;3.40;;
17059;SDS011;8646;49.716;9.266;2023-03-29T02:18:49;9.00;;;3.57;;
17059;SDS011;8646;49.716;9.266;2023-03-29T02:21:55;7.77;;;2.83;;
17059;SDS011;8646;49.716;9.266;2023-03-29T02:25:04;8.77;;;2.67;;
17059;SDS011;8646;49.716;9.266;2023-03-29T02:28:09;6.87;;;2.47;;
17059;SDS011;8646;49.716;9.266;2023-03-29T02:31:16;13.60;;;3.50;;
17059;SDS011;8646;49.716;9.266;2023-03-29T02:34:27;11.53;;;3.60;;
17059;SDS011;8646;49.716;9.266;2023-03-29T02:37:31;8.13;;;2.60;;
17059;SDS011;8646;49.716;9.266;2023-03-29T02:40:40;7.40;;;2.50;;
17059;SDS011;8646;49.716;9.266;2023-03-29T02:43:44;6.43;;;2.10;;
17059;SDS011;8646;49.716;9.266;2023-03-29T02:46:52;8.03;;;2.47;;
17059;SDS011;8646;49.716;9.266;2023-03-29T02:49:58;6.77;;;2.20;;
17059;SDS011;8646;49.716;9.266;2023-03-29T02:53:02;5.90;;;1.90;;
17059;SDS011;8646;49.716;9.266;2023-03-29T02:56:08;3.93;;;1.63;;
17059;SDS011;8646;49.716;9.266;2023-03-29T02:59:11;6.73;;;1.67;;
17059;SDS011;8646;49.716;9.266;2023-03-29T03:02:16;5.63;;;2.20;;
17059;SDS011;8646;49.716;9.266;2023-03-29T03:05:18;7.33;;;2.20;;
17059;SDS011;8646;49.716;9.266;2023-03-29T03:08:21;6.07;;;2.37;;
17059;SDS011;8646;49.716;9.266;2023-03-29T03:11:25;12.20;;;2.80;;
17059;SDS011;8646;49.716;9.266;2023-03-29T03:14:27;14.63;;;3.03;;
17059;SDS011;8646;49.716;9.266;2023-03-29T03:17:32;17.17;;;2.90;;
17059;SDS011;8646;49.716;9.266;2023-03-29T03:20:40;6.63;;;2.17;;
17059;SDS011;8646;49.716;9.266;2023-03-29T03:23:47;8.20;;;2.47;;
17059;SDS011;8646;49.716;9.266;2023-03-29T03:26:50;9.73;;;2.63;;
17059;SDS011;8646;49.716;9.266;2023-03-29T03:29:53;9.23;;;3.13;;
17059;SDS011;8646;49.716;9.266;2023-03-29T03:32:57;8.80;;;2.50;;
17059;SDS011;8646;49.716;9.266;2023-03-29T03:35:59;4.17;;;1.53;;
17059;SDS011;8646;49.716;9.266;2023-03-29T03:39:05;3.93;;;2.00;;
17059;SDS011;8646;49.716;9.266;2023-03-29T03:42:08;6.57;;;2.20;;
17059;SDS011;8646;49.716;9.266;2023-03-29T03:45:11;10.20;;;3.00;;
17059;SDS011;8646;49.716;9.266;2023-03-29T03:48:15;7.57;;;3.20;;
17059;SDS011;8646;49.716;9.266;2023-03-29T03:51:18;4.87;;;2.30;;
17059;SDS011;8646;49.716;9.266;2023-03-29T03:54:21;6.57;;;2.10;;
17059;SDS011;8646;49.716;9.266;2023-03-29T03:57:24;7.10;;;2.23;;
17059;SDS011;8646;49.716;9.266;2023-03-29T04:00:26;5.23;;;2.40;;
17059;SDS011;8646;49.716;9.266;2023-03-29T04:03:31;8.93;;;2.40;;
17059;SDS011;8646;49.716;9.266;2023-03-29T04:06:35;5.60;;;1.83;;
17059;SDS011;8646;49.716;9.266;2023-03-29T04:09:37;9.43;;;2.33;;
17059;SDS011;8646;49.716;9.266;2023-03-29T04:12:40;6.90;;;2.80;;
17059;SDS011;8646;49.716;9.266;2023-03-29T04:15:43;7.87;;;2.70;;
17059;SDS011;8646;49.716;9.266;2023-03-29T04:18:47;10.20;;;2.60;;
17059;SDS011;8646;49.716;9.266;2023-03-29T04:21:53;12.50;;;2.73;;
17059;SDS011;8646;49.716;9.266;2023-03-29T04:24:56;12.80;;;2.90;;
17059;SDS011;8646;49.716;9.266;2023-03-29T04:27:59;9.00;;;2.93;;
17059;SDS011;8646;49.716;9.266;2023-03-29T04:31:04;9.97;;;3.17;;
17059;SDS011;8646;49.716;9.266;2023-03-29T04:34:08;10.73;;;3.00;;
17059;SDS011;8646;49.716;9.266;2023-03-29T04:37:11;12.20;;;2.97;;
17059;SDS011;8646;49.716;9.266;2023-03-29T04:40:14;5.50;;;2.50;;
17059;SDS011;8646;49.716;9.266;2023-03-29T04:43:22;11.40;;;2.83;;
17059;SDS011;8646;49.716;9.266;2023-03-29T04:46:27;11.63;;;3.80;;
17059;SDS011;8646;49.716;9.266;2023-03-29T04:49:32;12.77;;;2.80;;
17059;SDS011;8646;49.716;9.266;2023-03-29T04:52:35;11.13;;;3.20;;
17059;SDS011;8646;49.716;9.266;2023-03-29T04:55:37;10.53;;;3.17;;
17059;SDS011;8646;49.716;9.266;2023-03-29T04:58:40;9.30;;;3.30;;
17059;SDS011;8646;49.716;9.266;2023-03-29T05:01:44;11.03;;;3.43;;
17059;SDS011;8646;49.716;9.266;2023-03-29T05:04:48;8.53;;;3.57;;
17059;SDS011;8646;49.716;9.266;2023-03-29T05:07:51;7.60;;;2.33;;
17059;SDS011;8646;49.716;9.266;2023-03-29T05:11:02;9.43;;;2.53;;
17059;SDS011;8646;49.716;9.266;2023-03-29T05:14:05;7.20;;;2.67;;
17059;SDS011;8646;49.716;9.266;2023-03-29T05:17:09;9.20;;;3.03;;
17059;SDS011;8646;49.716;9.266;2023-03-29T05:20:13;8.90;;;2.43;;
17059;SDS011;8646;49.716;9.266;2023-03-29T05:23:17;6.97;;;2.67;;
17059;SDS011;8646;49.716;9.266;2023-03-29T05:26:20;14.43;;;2.87;;
17059;SDS011;8646;49.716;9.266;2023-03-29T05:29:23;12.53;;;3.00;;
17059;SDS011;8646;49.716;9.266;2023-03-29T05:32:40;10.50;;;2.77;;
17059;SDS011;8646;49.716;9.266;2023-03-29T05:35:44;9.63;;;2.70;;
17059;SDS011;8646;49.716;9.266;2023-03-29T05:38:47;10.13;;;3.03;;
17059;SDS011;8646;49.716;9.266;2023-03-29T05:41:50;10.63;;;2.97;;
17059;SDS011;8646;49.716;9.266;2023-03-29T05:44:53;12.83;;;3.53;;
17059;SDS011;8646;49.716;9.266;2023-03-29T05:47:56;17.50;;;3.93;;
17059;SDS011;8646;49.716;9.266;2023-03-29T05:51:00;14.57;;;4.33;;
17059;SDS011;8646;49.716;9.266;2023-03-29T05:54:04;16.80;;;5.00;;
17059;SDS011;8646;49.716;9.266;2023-03-29T05:57:10;20.13;;;6.83;;
17059;SDS011;8646;49.716;9.266;2023-03-29T06:00:13;22.40;;;7.20;;
17059;SDS011;8646;49.716;9.266;2023-03-29T06:03:26;11.80;;;4.37;;
17059;SDS011;8646;49.716;9.266;2023-03-29T06:06:31;22.03;;;4.13;;
17059;SDS011;8646;49.716;9.266;2023-03-29T06:09:36;16.40;;;5.13;;
17059;SDS011;8646;49.716;9.266;2023-03-29T06:12:39;9.33;;;3.97;;
17059;SDS011;8646;49.716;9.266;2023-03-29T06:15:42;6.40;;;3.23;;
17059;SDS011;8646;49.716;9.266;2023-03-29T06:18:45;7.47;;;2.60;;
17059;SDS011;8646;49.716;9.266;2023-03-29T06:21:49;8.93;;;2.63;;
17059;SDS011;8646;49.716;9.266;2023-03-29T06:24:53;7.47;;;2.73;;
17059;SDS011;8646;49.716;9.266;2023-03-29T06:27:56;4.87;;;2.40;;
17059;SDS011;8646;49.716;9.266;2023-03-29T06:30:59;7.77;;;2.80;;
17059;SDS011;8646;49.716;9.266;2023-03-29T06:34:04;15.53;;;5.97;;
17059;SDS011;8646;49.716;9.266;2023-03-29T06:37:09;30.43;;;10.87;;
17059;SDS011;8646;49.716;9.266;2023-03-29T06:40:15;7.50;;;3.67;;
17059;SDS011;8646;49.716;9.266;2023-03-29T06:43:19;9.43;;;2.60;;
17059;SDS011;8646;49.716;9.266;2023-03-29T06:46:24;4.83;;;2.13;;
17059;SDS011;8646;49.716;9.266;2023-03-29T06:49:27;7.73;;;1.93;;
17059;SDS011;8646;49.716;9.266;2023-03-29T06:52:33;10.17;;;3.70;;
17059;SDS011;8646;49.716;9.266;2023-03-29T06:55:45;11.47;;;3.03;;
17059;SDS011;8646;49.716;9.266;2023-03-29T06:58:48;4.33;;;2.03;;
17059;SDS011;8646;49.716;9.266;2023-03-29T07:01:51;20.47;;;8.77;;
17059;SDS011;8646;49.716;9.266;2023-03-29T07:04:57;7.83;;;3.00;;
17059;SDS011;8646;49.716;9.266;2023-03-29T07:08:03;10.20;;;2.50;;
17059;SDS011;8646;49.716;9.266;2023-03-29T07:11:14;6.23;;;2.50;;
17059;SDS011;8646;49.716;9.266;2023-03-29T07:14:19;4.90;;;2.30;;
17059;SDS011;8646;49.716;9.266;2023-03-29T07:17:24;6.53;;;2.67;;
17059;SDS011;8646;49.716;9.266;2023-03-29T07:20:27;3.63;;;1.80;;
17059;SDS011;8646;49.716;9.266;2023-03-29T07:23:46;4.07;;;2.37;;
17059;SDS011;8646;49.716;9.266;2023-03-29T07:26:49;8.57;;;2.13;;
17059;SDS011;8646;49.716;9.266;2023-03-29T07:30:13;3.40;;;1.73;;
17059;SDS011;8646;49.716;9.266;2023-03-29T07:33:18;7.67;;;2.00;;
17059;SDS011;8646;49.716;9.266;2023-03-29T07:36:21;6.83;;;2.40;;
17059;SDS011;8646;49.716;9.266;2023-03-29T07:39:28;6.30;;;2.23;;
17059;SDS011;8646;49.716;9.266;2023-03-29T07:42:31;13.47;;;2.70;;
17059;SDS011;8646;49.716;9.266;2023-03-29T07:45:34;8.60;;;3.60;;
17059;SDS011;8646;49.716;9.266;2023-03-29T07:48:37;10.00;;;2.83;;
17059;SDS011;8646;49.716;9.266;2023-03-29T07:51:39;14.77;;;3.33;;
17059;SDS011;8646;49.716;9.266;2023-03-29T07:54:44;14.23;;;2.73;;
17059;SDS011;8646;49.716;9.266;2023-03-29T07:57:47;11.70;;;2.57;;
17059;SDS011;8646;49.716;9.266;2023-03-29T08:00:50;13.67;;;2.40;;
17059;SDS011;8646;49.716;9.266;2023-03-29T08:03:55;9.53;;;2.53;;
17059;SDS011;8646;49.716;9.266;2023-03-29T08:06:59;6.80;;;1.77;;
17059;SDS011;8646;49.716;9.266;2023-03-29T08:10:03;4.90;;;2.10;;
17059;SDS011;8646;49.716;9.266;2023-03-29T08:13:09;12.70;;;2.87;;
17059;SDS011;8646;49.716;9.266;2023-03-29T08:16:12;8.93;;;2.30;;
17059;SDS011;8646;49.716;9.266;2023-03-29T08:19:15;9.47;;;2.50;;
17059;SDS011;8646;49.716;9.266;2023-03-29T08:22:18;8.00;;;2.30;;
17059;SDS011;8646;49.716;9.266;2023-03-29T08:25:24;8.10;;;2.50;;
17059;SDS011;8646;49.716;9.266;2023-03-29T08:28:27;11.13;;;3.50;;
17059;SDS011;8646;49.716;9.266;2023-03-29T08:31:30;11.03;;;2.90;;
17059;SDS011;8646;49.716;9.266;2023-03-29T08:34:34;9.07;;;2.83;;
17059;SDS011;8646;49.716;9.266;2023-03-29T08:37:43;11.10;;;3.00;;
17059;SDS011;8646;49.716;9.266;2023-03-29T08:40:47;10.33;;;2.50;;
17059;SDS011;8646;49.716;9.266;2023-03-29T08:43:55;6.67;;;2.73;;
17059;SDS011;8646;49.716;9.266;2023-03-29T08:47:09;10.47;;;2.50;;
17059;SDS011;8646;49.716;9.266;2023-03-29T08:50:21;7.87;;;2.70;;
17059;SDS011;8646;49.716;9.266;2023-03-29T08:53:34;13.17;;;3.40;;
17059;SDS011;8646;49.716;9.266;2023-03-29T08:56:43;11.23;;;3.10;;
17059;SDS011;8646;49.716;9.266;2023-03-29T08:59:49;16.50;;;3.97;;
17059;SDS011;8646;49.716;9.266;2023-03-29T09:02:53;13.53;;;3.40;;
17059;SDS011;8646;49.716;9.266;2023-03-29T09:06:02;12.60;;;3.30;;
17059;SDS011;8646;49.716;9.266;2023-03-29T09:09:09;9.00;;;3.10;;
17059;SDS011;8646;49.716;9.266;2023-03-29T09:12:21;11.43;;;3.30;;
17059;SDS011;8646;49.716;9.266;2023-03-29T09:15:32;12.73;;;3.33;;
17059;SDS011;8646;49.716;9.266;2023-03-29T09:18:45;9.53;;;3.60;;
17059;SDS011;8646;49.716;9.266;2023-03-29T09:22:05;8.73;;;2.97;;
17059;SDS011;8646;49.716;9.266;2023-03-29T09:25:20;13.87;;;3.33;;
17059;SDS011;8646;49.716;9.266;2023-03-29T09:28:30;8.90;;;2.70;;
17059;SDS011;8646;49.716;9.266;2023-03-29T09:31:40;6.93;;;2.73;;
17059;SDS011;8646;49.716;9.266;2023-03-29T09:34:46;5.53;;;1.77;;
17059;SDS011;8646;49.716;9.266;2023-03-29T09:37:53;10.63;;;2.40;;
17059;SDS011;8646;49.716;9.266;2023-03-29T09:40:57;9.07;;;2.23;;
17059;SDS011;8646;49.716;9.266;2023-03-29T09:44:07;34.20;;;7.50;;
17059;SDS011;8646;49.716;9.266;2023-03-29T09:47:31;5.63;;;1.70;;
17059;SDS011;8646;49.716;9.266;2023-03-29T09:50:38;3.43;;;1.40;;
17059;SDS011;8646;49.716;9.266;2023-03-29T09:53:42;3.70;;;1.33;;
17059;SDS011;8646;49.716;9.266;2023-03-29T09:56:45;3.00;;;1.40;;
17059;SDS011;8646;49.716;9.266;2023-03-29T09:59:57;4.40;;;1.57;;
17059;SDS011;8646;49.716;9.266;2023-03-29T10:03:03;4.30;;;1.50;;
17059;SDS011;8646;49.716;9.266;2023-03-29T10:06:10;3.33;;;1.43;;
17059;SDS011;8646;49.716;9.266;2023-03-29T10:09:15;3.80;;;1.47;;
17059;SDS011;8646;49.716;9.266;2023-03-29T10:12:21;5.13;;;1.47;;
17059;SDS011;8646;49.716;9.266;2023-03-29T10:15:33;4.60;;;1.20;;
17059;SDS011;8646;49.716;9.266;2023-03-29T10:18:38;2.30;;;1.17;;
17059;SDS011;8646;49.716;9.266;2023-03-29T10:21:41;2.40;;;1.10;;
17059;SDS011;8646;49.716;9.266;2023-03-29T10:24:48;3.23;;;1.17;;
17059;SDS011;8646;49.716;9.266;2023-03-29T10:27:52;3.67;;;0.97;;
17059;SDS011;8646;49.716;9.266;2023-03-29T10:31:05;2.73;;;1.30;;
17059;SDS011;8646;49.716;9.266;2023-03-29T10:34:09;3.63;;;1.40;;
17059;SDS011;8646;49.716;9.266;2023-03-29T10:37:16;3.33;;;1.10;;
17059;SDS011;8646;49.716;9.266;2023-03-29T10:40:20;2.47;;;1.20;;
17059;SDS011;8646;49.716;9.266;2023-03-29T10:43:28;2.40;;;1.20;;
17059;SDS011;8646;49.716;9.266;2023-03-29T10:46:41;4.53;;;1.40;;
17059;SDS011;8646;49.716;9.266;2023-03-29T10:49:45;6.07;;;1.20;;
17059;SDS011;8646;49.716;9.266;2023-03-29T10:52:56;3.83;;;1.80;;
17059;SDS011;8646;49.716;9.266;2023-03-29T10:56:04;4.03;;;1.60;;
17059;SDS011;8646;49.716;9.266;2023-03-29T10:59:25;3.00;;;1.20;;
17059;SDS011;8646;49.716;9.266;2023-03-29T11:02:58;4.13;;;1.20;;
17059;SDS011;8646;49.716;9.266;2023-03-29T11:06:18;3.90;;;1.30;;
17059;SDS011;8646;49.716;9.266;2023-03-29T11:09:40;4.37;;;1.30;;
17059;SDS011;8646;49.716;9.266;2023-03-29T11:12:54;5.13;;;1.30;;
17059;SDS011;8646;49.716;9.266;2023-03-29T11:16:04;3.47;;;1.20;;
17059;SDS011;8646;49.716;9.266;2023-03-29T11:19:31;5.17;;;1.30;;
17059;SDS011;8646;49.716;9.266;2023-03-29T11:22:55;4.80;;;1.60;;
17059;SDS011;8646;49.716;9.266;2023-03-29T11:26:10;5.87;;;1.37;;
17059;SDS011;8646;49.716;9.266;2023-03-29T11:29:17;3.90;;;1.10;;
17059;SDS011;8646;49.716;9.266;2023-03-29T11:32:27;2.37;;;1.13;;
17059;SDS011;8646;49.716;9.266;2023-03-29T11:35:42;3.83;;;1.30;;
17059;SDS011;8646;49.716;9.266;2023-03-29T11:38:51;3.73;;;1.10;;
17059;SDS011;8646;49.716;9.266;2023-03-29T11:42:08;3.97;;;1.20;;
17059;SDS011;8646;49.716;9.266;2023-03-29T11:45:17;4.30;;;1.30;;
17059;SDS011;8646;49.716;9.266;2023-03-29T11:48:28;5.23;;;1.20;;
17059;SDS011;8646;49.716;9.266;2023-03-29T11:51:39;3.00;;;0.90;;
17059;SDS011;8646;49.716;9.266;2023-03-29T11:54:49;1.97;;;0.90;;
17059;SDS011;8646;49.716;9.266;2023-03-29T11:57:57;3.40;;;1.07;;
17059;SDS011;8646;49.716;9.266;2023-03-29T12:01:04;2.10;;;1.00;;
17059;SDS011;8646;49.716;9.266;2023-03-29T12:04:12;2.80;;;1.00;;
17059;SDS011;8646;49.716;9.266;2023-03-29T12:07:25;4.33;;;1.10;;
17059;SDS011;8646;49.716;9.266;2023-03-29T12:10:33;7.33;;;1.10;;
17059;SDS011;8646;49.716;9.266;2023-03-29T12:13:46;2.27;;;0.90;;
17059;SDS011;8646;49.716;9.266;2023-03-29T12:16:55;3.33;;;1.00;;
17059;SDS011;8646;49.716;9.266;2023-03-29T12:20:04;4.80;;;1.10;;
17059;SDS011;8646;49.716;9.266;2023-03-29T12:23:16;5.10;;;1.00;;
17059;SDS011;8646;49.716;9.266;2023-03-29T12:26:33;3.00;;;1.20;;
17059;SDS011;8646;49.716;9.266;2023-03-29T12:33:33;2.70;;;0.90;;
17059;SDS011;8646;49.716;9.266;2023-03-29T12:36:49;3.83;;;1.30;;
17059;SDS011;8646;49.716;9.266;2023-03-29T12:40:08;2.37;;;1.00;;
17059;SDS011;8646;49.716;9.266;2023-03-29T12:43:20;4.40;;;1.63;;
17059;SDS011;8646;49.716;9.266;2023-03-29T12:46:26;1.90;;;1.03;;
17059;SDS011;8646;49.716;9.266;2023-03-29T12:49:34;3.37;;;1.00;;
17059;SDS011;8646;49.716;9.266;2023-03-29T12:52:40;4.13;;;1.20;;
17059;SDS011;8646;49.716;9.266;2023-03-29T12:56:05;3.27;;;1.40;;
17059;SDS011;8646;49.716;9.266;2023-03-29T12:59:23;3.93;;;1.30;;
17059;SDS011;8646;49.716;9.266;2023-03-29T13:02:33;4.33;;;1.43;;
17059;SDS011;8646;49.716;9.266;2023-03-29T13:09:18;3.97;;;1.90;;
17059;SDS011;8646;49.716;9.266;2023-03-29T13:12:25;7.37;;;1.20;;
17059;SDS011;8646;49.716;9.266;2023-03-29T13:15:33;4.03;;;1.40;;
17059;SDS011;8646;49.716;9.266;2023-03-29T13:18:40;3.37;;;1.27;;
17059;SDS011;8646;49.716;9.266;2023-03-29T13:21:55;2.60;;;1.10;;
17059;SDS011;8646;49.716;9.266;2023-03-29T13:25:14;3.10;;;1.13;;
17059;SDS011;8646;49.716;9.266;2023-03-29T13:28:48;6.27;;;1.13;;
17059;SDS011;8646;49.716;9.266;2023-03-29T13:32:05;10.47;;;1.80;;
17059;SDS011;8646;49.716;9.266;2023-03-29T13:35:30;3.93;;;1.40;;
17059;SDS011;8646;49.716;9.266;2023-03-29T13:38:43;7.77;;;3.37;;
17059;SDS011;8646;49.716;9.266;2023-03-29T13:41:49;9.03;;;3.20;;
17059;SDS011;8646;49.716;9.266;2023-03-29T13:45:02;4.33;;;1.40;;
17059;SDS011;8646;49.716;9.266;2023-03-29T13:48:20;3.63;;;1.60;;
17059;SDS011;8646;49.716;9.266;2023-03-29T13:51:30;2.20;;;1.30;;
17059;SDS011;8646;49.716;9.266;2023-03-29T13:54:38;4.30;;;1.40;;
17059;SDS011;8646;49.716;9.266;2023-03-29T13:57:48;7.70;;;2.17;;
17059;SDS011;8646;49.716;9.266;2023-03-29T14:00:58;5.60;;;1.87;;
17059;SDS011;8646;49.716;9.266;2023-03-29T14:04:19;2.30;;;1.60;;
17059;SDS011;8646;49.716;9.266;2023-03-29T14:07:25;3.20;;;2.10;;
17059;SDS011;8646;49.716;9.266;2023-03-29T14:10:32;5.07;;;2.00;;
17059;SDS011;8646;49.716;9.266;2023-03-29T14:17:13;5.00;;;1.60;;
17059;SDS011;8646;49.716;9.266;2023-03-29T14:20:19;3.77;;;1.63;;
17059;SDS011;8646;49.716;9.266;2023-03-29T14:23:26;5.23;;;1.53;;
17059;SDS011;8646;49.716;9.266;2023-03-29T14:26:34;3.80;;;1.93;;
17059;SDS011;8646;49.716;9.266;2023-03-29T14:29:37;10.93;;;1.60;;
17059;SDS011;8646;49.716;9.266;2023-03-29T14:32:41;3.70;;;1.30;;
17059;SDS011;8646;49.716;9.266;2023-03-29T14:35:44;2.47;;;1.50;;
17059;SDS011;8646;49.716;9.266;2023-03-29T14:38:47;4.40;;;1.43;;
17059;SDS011;8646;49.716;9.266;2023-03-29T14:41:55;4.70;;;1.33;;
17059;SDS011;8646;49.716;9.266;2023-03-29T14:45:01;6.10;;;1.47;;
17059;SDS011;8646;49.716;9.266;2023-03-29T14:48:07;5.87;;;1.40;;
17059;SDS011;8646;49.716;9.266;2023-03-29T14:51:14;4.43;;;1.37;;
17059;SDS011;8646;49.716;9.266;2023-03-29T14:54:18;3.03;;;1.23;;
17059;SDS011;8646;49.716;9.266;2023-03-29T14:57:24;2.50;;;1.27;;
17059;SDS011;8646;49.716;9.266;2023-03-29T15:00:29;3.50;;;1.50;;
17059;SDS011;8646;49.716;9.266;2023-03-29T15:03:52;6.93;;;1.30;;
17059;SDS011;8646;49.716;9.266;2023-03-29T15:06:56;3.90;;;1.40;;
17059;SDS011;8646;49.716;9.266;2023-03-29T15:10:00;5.73;;;1.70;;
17059;SDS011;8646;49.716;9.266;2023-03-29T15:13:05;4.50;;;1.37;;
17059;SDS011;8646;49.716;9.266;2023-03-29T15:16:10;3.60;;;1.30;;
17059;SDS011;8646;49.716;9.266;2023-03-29T15:19:17;3.27;;;1.70;;
17059;SDS011;8646;49.716;9.266;2023-03-29T15:22:32;7.73;;;2.37;;
17059;SDS011;8646;49.716;9.266;2023-03-29T15:25:36;4.77;;;1.63;;
17059;SDS011;8646;49.716;9.266;2023-03-29T15:28:52;8.43;;;1.60;;
17059;SDS011;8646;49.716;9.266;2023-03-29T15:32:02;5.07;;;2.87;;
17059;SDS011;8646;49.716;9.266;2023-03-29T15:35:07;7.67;;;1.93;;
17059;SDS011;8646;49.716;9.266;2023-03-29T15:38:25;8.50;;;1.80;;
17059;SDS011;8646;49.716;9.266;2023-03-29T15:41:43;7.00;;;1.60;;
17059;SDS011;8646;49.716;9.266;2023-03-29T15:44:51;4.30;;;1.63;;
17059;SDS011;8646;49.716;9.266;2023-03-29T15:47:59;2.83;;;1.70;;
17059;SDS011;8646;49.716;9.266;2023-03-29T15:51:07;3.60;;;2.07;;
17059;SDS011;8646;49.716;9.266;2023-03-29T15:54:15;3.87;;;1.90;;
17059;SDS011;8646;49.716;9.266;2023-03-29T15:57:17;5.23;;;2.00;;
17059;SDS011;8646;49.716;9.266;2023-03-29T16:00:23;4.17;;;1.90;;
17059;SDS011;8646;49.716;9.266;2023-03-29T16:03:29;9.30;;;1.90;;
17059;SDS011;8646;49.716;9.266;2023-03-29T16:06:33;4.57;;;1.50;;
17059;SDS011;8646;49.716;9.266;2023-03-29T16:09:40;2.70;;;1.37;;
17059;SDS011;8646;49.716;9.266;2023-03-29T16:12:51;7.27;;;1.90;;
17059;SDS011;8646;49.716;9.266;2023-03-29T16:16:00;3.97;;;1.60;;
17059;SDS011;8646;49.716;9.266;2023-03-29T16:19:04;3.00;;;1.70;;
17059;SDS011;8646;49.716;9.266;2023-03-29T16:22:08;6.33;;;1.40;;
17059;SDS011;8646;49.716;9.266;2023-03-29T16:25:11;6.83;;;2.20;;
17059;SDS011;8646;49.716;9.266;2023-03-29T16:28:16;6.67;;;2.70;;
17059;SDS011;8646;49.716;9.266;2023-03-29T16:31:18;4.53;;;1.93;;
17059;SDS011;8646;49.716;9.266;2023-03-29T16:34:29;5.17;;;2.00;;
17059;SDS011;8646;49.716;9.266;2023-03-29T16:37:33;4.00;;;1.80;;
17059;SDS011;8646;49.716;9.266;2023-03-29T16:40:37;3.07;;;1.77;;
17059;SDS011;8646;49.716;9.266;2023-03-29T16:43:42;4.27;;;1.50;;
17059;SDS011;8646;49.716;9.266;2023-03-29T16:46:45;3.23;;;1.60;;
17059;SDS011;8646;49.716;9.266;2023-03-29T16:49:58;3.77;;;1.77;;
17059;SDS011;8646;49.716;9.266;2023-03-29T16:53:02;3.80;;;1.40;;
17059;SDS011;8646;49.716;9.266;2023-03-29T16:56:08;4.50;;;1.50;;
17059;SDS011;8646;49.716;9.266;2023-03-29T16:59:11;3.93;;;1.60;;
17059;SDS011;8646;49.716;9.266;2023-03-29T17:02:17;6.10;;;1.67;;
17059;SDS011;8646;49.716;9.266;2023-03-29T17:05:20;4.90;;;1.40;;
17059;SDS011;8646;49.716;9.266;2023-03-29T17:08:24;4.67;;;1.63;;
17059;SDS011;8646;49.716;9.266;2023-03-29T17:11:27;3.73;;;1.50;;
17059;SDS011;8646;49.716;9.266;2023-03-29T17:14:30;3.23;;;1.70;;
17059;SDS011;8646;49.716;9.266;2023-03-29T17:17:33;3.73;;;1.47;;
17059;SDS011;8646;49.716;9.266;2023-03-29T17:20:39;3.20;;;1.40;;
17059;SDS011;8646;49.716;9.266;2023-03-29T17:23:43;5.50;;;2.23;;
17059;SDS011;8646;49.716;9.266;2023-03-29T17:26:46;4.60;;;1.30;;
17059;SDS011;8646;49.716;9.266;2023-03-29T17:29:49;3.63;;;1.20;;
17059;SDS011;8646;49.716;9.266;2023-03-29T17:32:52;2.73;;;1.10;;
17059;SDS011;8646;49.716;9.266;2023-03-29T17:35:55;6.13;;;1.40;;
17059;SDS011;8646;49.716;9.266;2023-03-29T17:38:59;5.67;;;2.10;;
17059;SDS011;8646;49.716;9.266;2023-03-29T17:42:03;4.63;;;1.67;;
17059;SDS011;8646;49.716;9.266;2023-03-29T17:45:07;3.73;;;1.40;;
17059;SDS011;8646;49.716;9.266;2023-03-29T17:48:10;4.03;;;1.50;;
17059;SDS011;8646;49.716;9.266;2023-03-29T17:51:13;2.77;;;1.43;;
17059;SDS011;8646;49.716;9.266;2023-03-29T17:54:17;3.50;;;1.50;;
17059;SDS011;8646;49.716;9.266;2023-03-29T17:57:21;2.80;;;1.07;;
17059;SDS011;8646;49.716;9.266;2023-03-29T18:00:24;3.20;;;1.40;;
17059;SDS011;8646;49.716;9.266;2023-03-29T18:03:30;3.50;;;1.40;;
17059;SDS011;8646;49.716;9.266;2023-03-29T18:06:32;4.67;;;1.40;;
17059;SDS011;8646;49.716;9.266;2023-03-29T18:09:37;6.53;;;1.40;;
17059;SDS011;8646;49.716;9.266;2023-03-29T18:12:39;5.43;;;1.60;;
17059;SDS011;8646;49.716;9.266;2023-03-29T18:15:42;3.70;;;2.13;;
17059;SDS011;8646;49.716;9.266;2023-03-29T18:18:45;3.30;;;1.70;;
17059;SDS011;8646;49.716;9.266;2023-03-29T18:21:51;4.63;;;1.33;;
17059;SDS011;8646;49.716;9.266;2023-03-29T18:24:55;4.47;;;1.20;;
17059;SDS011;8646;49.716;9.266;2023-03-29T18:27:58;1.87;;;1.00;;
17059;SDS011;8646;49.716;9.266;2023-03-29T18:31:01;4.37;;;1.40;;
17059;SDS011;8646;49.716;9.266;2023-03-29T18:34:05;3.77;;;1.60;;
17059;SDS011;8646;49.716;9.266;2023-03-29T18:37:07;6.47;;;2.83;;
17059;SDS011;8646;49.716;9.266;2023-03-29T18:40:16;7.47;;;2.40;;
17059;SDS011;8646;49.716;9.266;2023-03-29T18:43:21;7.13;;;3.03;;
17059;SDS011;8646;49.716;9.266;2023-03-29T18:46:27;6.37;;;2.57;;
17059;SDS011;8646;49.716;9.266;2023-03-29T18:49:33;4.87;;;2.50;;
17059;SDS011;8646;49.716;9.266;2023-03-29T18:52:37;7.43;;;1.83;;
17059;SDS011;8646;49.716;9.266;2023-03-29T18:55:41;3.77;;;2.30;;
17059;SDS011;8646;49.716;9.266;2023-03-29T18:58:45;5.30;;;1.70;;
17059;SDS011;8646;49.716;9.266;2023-03-29T19:01:47;4.17;;;2.03;;
17059;SDS011;8646;49.716;9.266;2023-03-29T19:04:53;5.07;;;1.80;;
17059;SDS011;8646;49.716;9.266;2023-03-29T19:07:59;5.87;;;2.00;;
17059;SDS011;8646;49.716;9.266;2023-03-29T19:11:05;6.13;;;2.30;;